Northeast Iowa Regional Airport
KCCY : now visible

Airfield :











YOU CAN JOIN US ON...

 
LOGIN :

Register | Disclaimer

   EN    FR    IT 

 









Legend :    VFR   Marginal VFR   IFR   Intensive IFR   Very Intensive IFR
Visi :
Ceiling :
>= 8 km
>= 3000ft
5 to 8 km
1000 to 3000 ft
1500m to 5 km
500 to 1000 ft
800 to 1500m
200 to 500 ft
< 800m
< 200 ft
Symbols :   Thunderstorms  Fog  Heavy snow  Heavy precipitations  Wind > 20 kt






- Airport Elevation : 1125 ft


KCCY - Northeast Iowa Regional

CURRENT METAR :
  • 230235Z AUTO 02015KT 10SM OVC007 02/02 A2992 RMK AO2

EXPIRED METARs :
  • 230215Z AUTO 02015KT 10SM OVC008 02/02 A2992 RMK AO2
  • 230155Z AUTO 02016G21KT 10SM OVC008 02/02 A2992 RMK AO2 P0001
  • 230135Z AUTO 02014KT 10SM OVC008 02/02 A2992 RMK AO2
  • 230115Z AUTO 02013G22KT 6SM -RA OVC008 02/02 A2992 RMK AO2
  • 230055Z AUTO 02016G22KT 10SM OVC008 02/02 A2991 RMK AO2 P0001
  • 230035Z AUTO 02016G22KT 7SM -RA OVC008 03/02 A2991 RMK AO2
  • 230015Z AUTO 02016G23KT 6SM BR OVC007 03/02 A2991 RMK AO2

TAF N/A
KZMP FIR / North America



MET'MAP, your aeronautical weather chart ! - Copyright ORBIFLY December 2007 - Disclaimer

ORBIFLY MET'MAP TEAM :

Programming & Development : Alexandra Zaïnal
Concept & original design : Baudouin d'Aumeries
Assistance for programming : Marc-Olivier Méhu
Technical & hardware support : Manuel Goepfert

Contact : metmap@orbifly.com




SOURCES & CREDITS :

   NOAA       Earth
Advisory